gordon.dewis.ca - Random musings from Gordon

Subscribe

Incoming! (ick)

February 26, 2013 @ 23:47 By: gordon Category: Weather

It looks like we’re in for a little an unnecessary amount of snow on Wednesday:

TAF CYOW 270238Z 2703/2724 06012KT P6SM BKN180 OVC200
FM271300 07015G25KT 2SM -SN OVC020
FM271700 07020G30KT 1/2SM -SN BLSN VV005 
  PROB30 2717/2724 3/8SM SN BLSN VV004
RMK NXT FCST BY 270600Z=

And you can already see it on the radar:

XFT radar - 20130226 2330L

Ick.

Leave a Reply

CAPTCHA
*